sensor_id;sensor_type;location;lat;lon;timestamp;P1;durP1;ratioP1;P2;durP2;ratioP2
42006;SDS011;27696;42.704;23.304;2023-04-30T00:00:43;17.45;;;13.13;;
42006;SDS011;27696;42.704;23.304;2023-04-30T00:03:08;21.63;;;14.05;;
42006;SDS011;27696;42.704;23.304;2023-04-30T00:05:34;17.80;;;14.07;;
42006;SDS011;27696;42.704;23.304;2023-04-30T00:08:00;18.15;;;14.52;;
42006;SDS011;27696;42.704;23.304;2023-04-30T00:10:25;18.38;;;13.60;;
42006;SDS011;27696;42.704;23.304;2023-04-30T00:12:51;18.73;;;14.05;;
42006;SDS011;27696;42.704;23.304;2023-04-30T00:15:16;18.95;;;13.32;;
42006;SDS011;27696;42.704;23.304;2023-04-30T00:17:41;21.13;;;16.92;;
42006;SDS011;27696;42.704;23.304;2023-04-30T00:20:07;20.23;;;13.82;;
42006;SDS011;27696;42.704;23.304;2023-04-30T00:22:32;16.67;;;12.90;;
42006;SDS011;27696;42.704;23.304;2023-04-30T00:24:58;16.60;;;12.38;;
42006;SDS011;27696;42.704;23.304;2023-04-30T00:27:23;16.58;;;11.90;;
42006;SDS011;27696;42.704;23.304;2023-04-30T00:29:49;13.02;;;11.60;;
42006;SDS011;27696;42.704;23.304;2023-04-30T00:32:14;22.02;;;14.10;;
42006;SDS011;27696;42.704;23.304;2023-04-30T00:34:40;20.35;;;15.32;;
42006;SDS011;27696;42.704;23.304;2023-04-30T00:37:05;20.70;;;15.52;;
42006;SDS011;27696;42.704;23.304;2023-04-30T00:39:30;23.60;;;16.10;;
42006;SDS011;27696;42.704;23.304;2023-04-30T00:41:56;18.92;;;15.43;;
42006;SDS011;27696;42.704;23.304;2023-04-30T00:44:21;21.73;;;16.05;;
42006;SDS011;27696;42.704;23.304;2023-04-30T00:46:47;23.58;;;15.63;;
42006;SDS011;27696;42.704;23.304;2023-04-30T00:49:12;19.33;;;15.88;;
42006;SDS011;27696;42.704;23.304;2023-04-30T00:51:38;25.13;;;17.27;;
42006;SDS011;27696;42.704;23.304;2023-04-30T00:54:06;27.13;;;18.02;;
42006;SDS011;27696;42.704;23.304;2023-04-30T00:56:32;25.00;;;18.55;;
42006;SDS011;27696;42.704;23.304;2023-04-30T00:58:57;21.67;;;17.80;;
42006;SDS011;27696;42.704;23.304;2023-04-30T01:01:24;20.17;;;17.58;;
42006;SDS011;27696;42.704;23.304;2023-04-30T01:03:50;23.38;;;18.10;;
42006;SDS011;27696;42.704;23.304;2023-04-30T01:06:16;22.95;;;17.33;;
42006;SDS011;27696;42.704;23.304;2023-04-30T01:08:41;21.05;;;16.88;;
42006;SDS011;27696;42.704;23.304;2023-04-30T01:16:35;24.65;;;17.55;;
42006;SDS011;27696;42.704;23.304;2023-04-30T01:19:34;22.77;;;16.65;;
42006;SDS011;27696;42.704;23.304;2023-04-30T01:22:11;19.10;;;15.52;;
42006;SDS011;27696;42.704;23.304;2023-04-30T01:25:20;17.17;;;13.93;;
42006;SDS011;27696;42.704;23.304;2023-04-30T01:28:04;15.85;;;11.90;;
42006;SDS011;27696;42.704;23.304;2023-04-30T01:30:43;15.18;;;11.95;;
42006;SDS011;27696;42.704;23.304;2023-04-30T01:33:11;12.90;;;11.60;;
42006;SDS011;27696;42.704;23.304;2023-04-30T01:35:43;16.27;;;11.77;;
42006;SDS011;27696;42.704;23.304;2023-04-30T01:46:34;17.05;;;11.35;;
42006;SDS011;27696;42.704;23.304;2023-04-30T01:51:57;17.77;;;11.05;;
42006;SDS011;27696;42.704;23.304;2023-04-30T01:54:31;13.80;;;10.85;;
42006;SDS011;27696;42.704;23.304;2023-04-30T01:57:06;17.92;;;11.70;;
42006;SDS011;27696;42.704;23.304;2023-04-30T01:59:37;15.07;;;11.73;;
42006;SDS011;27696;42.704;23.304;2023-04-30T02:02:03;14.50;;;11.55;;
42006;SDS011;27696;42.704;23.304;2023-04-30T02:04:30;15.13;;;11.48;;
42006;SDS011;27696;42.704;23.304;2023-04-30T02:06:57;19.27;;;12.05;;
42006;SDS011;27696;42.704;23.304;2023-04-30T02:09:22;17.05;;;12.02;;
42006;SDS011;27696;42.704;23.304;2023-04-30T02:11:48;20.80;;;13.18;;
42006;SDS011;27696;42.704;23.304;2023-04-30T02:14:14;19.58;;;13.63;;
42006;SDS011;27696;42.704;23.304;2023-04-30T02:16:39;18.50;;;13.27;;
42006;SDS011;27696;42.704;23.304;2023-04-30T02:19:05;20.35;;;15.02;;
42006;SDS011;27696;42.704;23.304;2023-04-30T02:21:30;15.25;;;12.73;;
42006;SDS011;27696;42.704;23.304;2023-04-30T02:23:56;16.65;;;12.68;;
42006;SDS011;27696;42.704;23.304;2023-04-30T02:26:21;19.08;;;12.13;;
42006;SDS011;27696;42.704;23.304;2023-04-30T02:28:47;18.85;;;12.43;;
42006;SDS011;27696;42.704;23.304;2023-04-30T02:31:12;15.18;;;12.45;;
42006;SDS011;27696;42.704;23.304;2023-04-30T02:33:38;17.02;;;12.73;;
42006;SDS011;27696;42.704;23.304;2023-04-30T02:36:03;18.02;;;13.00;;
42006;SDS011;27696;42.704;23.304;2023-04-30T02:38:29;15.05;;;12.90;;
42006;SDS011;27696;42.704;23.304;2023-04-30T02:40:54;17.65;;;14.07;;
42006;SDS011;27696;42.704;23.304;2023-04-30T02:43:20;17.98;;;13.45;;
42006;SDS011;27696;42.704;23.304;2023-04-30T02:45:45;19.42;;;14.40;;
42006;SDS011;27696;42.704;23.304;2023-04-30T02:48:10;18.95;;;13.48;;
42006;SDS011;27696;42.704;23.304;2023-04-30T02:50:36;19.88;;;13.63;;
42006;SDS011;27696;42.704;23.304;2023-04-30T02:53:01;17.63;;;12.38;;
42006;SDS011;27696;42.704;23.304;2023-04-30T02:55:27;18.63;;;13.70;;
42006;SDS011;27696;42.704;23.304;2023-04-30T02:57:52;17.33;;;12.68;;
42006;SDS011;27696;42.704;23.304;2023-04-30T03:00:18;18.27;;;13.20;;
42006;SDS011;27696;42.704;23.304;2023-04-30T03:02:43;17.85;;;12.73;;
42006;SDS011;27696;42.704;23.304;2023-04-30T03:05:09;15.93;;;12.30;;
42006;SDS011;27696;42.704;23.304;2023-04-30T03:07:35;14.88;;;11.32;;
42006;SDS011;27696;42.704;23.304;2023-04-30T03:10:00;16.77;;;11.32;;
42006;SDS011;27696;42.704;23.304;2023-04-30T03:12:26;15.02;;;9.13;;
42006;SDS011;27696;42.704;23.304;2023-04-30T03:14:51;11.88;;;9.38;;
42006;SDS011;27696;42.704;23.304;2023-04-30T03:17:17;12.05;;;9.18;;
42006;SDS011;27696;42.704;23.304;2023-04-30T03:19:42;9.95;;;7.90;;
42006;SDS011;27696;42.704;23.304;2023-04-30T03:22:10;8.73;;;6.85;;
42006;SDS011;27696;42.704;23.304;2023-04-30T03:24:35;7.13;;;6.43;;
42006;SDS011;27696;42.704;23.304;2023-04-30T03:27:01;8.10;;;5.78;;
42006;SDS011;27696;42.704;23.304;2023-04-30T03:29:27;9.55;;;6.40;;
42006;SDS011;27696;42.704;23.304;2023-04-30T03:31:52;7.47;;;5.82;;
42006;SDS011;27696;42.704;23.304;2023-04-30T03:34:18;9.32;;;6.60;;
42006;SDS011;27696;42.704;23.304;2023-04-30T03:36:43;9.15;;;6.70;;
42006;SDS011;27696;42.704;23.304;2023-04-30T03:39:08;6.07;;;5.50;;
42006;SDS011;27696;42.704;23.304;2023-04-30T03:41:35;9.52;;;5.78;;
42006;SDS011;27696;42.704;23.304;2023-04-30T03:44:00;7.93;;;5.68;;
42006;SDS011;27696;42.704;23.304;2023-04-30T03:46:26;8.13;;;5.70;;
42006;SDS011;27696;42.704;23.304;2023-04-30T03:48:51;8.32;;;6.30;;
42006;SDS011;27696;42.704;23.304;2023-04-30T03:51:20;8.85;;;6.18;;
42006;SDS011;27696;42.704;23.304;2023-04-30T03:53:45;8.88;;;6.32;;
42006;SDS011;27696;42.704;23.304;2023-04-30T03:56:11;10.48;;;6.82;;
42006;SDS011;27696;42.704;23.304;2023-04-30T03:58:37;8.23;;;6.28;;
42006;SDS011;27696;42.704;23.304;2023-04-30T04:01:02;9.05;;;6.53;;
42006;SDS011;27696;42.704;23.304;2023-04-30T04:03:28;11.07;;;7.20;;
42006;SDS011;27696;42.704;23.304;2023-04-30T04:05:53;10.50;;;6.82;;
42006;SDS011;27696;42.704;23.304;2023-04-30T04:08:19;11.13;;;6.47;;
42006;SDS011;27696;42.704;23.304;2023-04-30T04:10:44;8.68;;;6.55;;
42006;SDS011;27696;42.704;23.304;2023-04-30T04:13:09;9.63;;;7.00;;
42006;SDS011;27696;42.704;23.304;2023-04-30T04:15:35;10.25;;;7.22;;
42006;SDS011;27696;42.704;23.304;2023-04-30T04:18:00;12.70;;;7.50;;
42006;SDS011;27696;42.704;23.304;2023-04-30T04:20:26;11.77;;;7.68;;
42006;SDS011;27696;42.704;23.304;2023-04-30T04:22:53;9.82;;;7.45;;
42006;SDS011;27696;42.704;23.304;2023-04-30T04:25:19;12.13;;;7.00;;
42006;SDS011;27696;42.704;23.304;2023-04-30T04:27:46;10.48;;;6.50;;
42006;SDS011;27696;42.704;23.304;2023-04-30T04:30:11;8.40;;;6.43;;
42006;SDS011;27696;42.704;23.304;2023-04-30T04:32:37;10.80;;;7.03;;
42006;SDS011;27696;42.704;23.304;2023-04-30T04:35:12;11.63;;;7.10;;
42006;SDS011;27696;42.704;23.304;2023-04-30T04:37:39;10.38;;;7.05;;
42006;SDS011;27696;42.704;23.304;2023-04-30T04:40:05;11.68;;;6.63;;
42006;SDS011;27696;42.704;23.304;2023-04-30T04:42:31;10.45;;;7.35;;
42006;SDS011;27696;42.704;23.304;2023-04-30T04:44:56;7.35;;;6.20;;
42006;SDS011;27696;42.704;23.304;2023-04-30T04:47:22;10.02;;;6.55;;
42006;SDS011;27696;42.704;23.304;2023-04-30T04:49:47;9.00;;;6.30;;
42006;SDS011;27696;42.704;23.304;2023-04-30T04:52:13;11.82;;;7.03;;
42006;SDS011;27696;42.704;23.304;2023-04-30T04:54:38;14.15;;;7.70;;
42006;SDS011;27696;42.704;23.304;2023-04-30T04:57:03;8.85;;;6.63;;
42006;SDS011;27696;42.704;23.304;2023-04-30T04:59:29;9.65;;;6.95;;
42006;SDS011;27696;42.704;23.304;2023-04-30T05:01:55;10.25;;;7.25;;
42006;SDS011;27696;42.704;23.304;2023-04-30T05:04:20;10.88;;;7.28;;
42006;SDS011;27696;42.704;23.304;2023-04-30T05:06:46;13.70;;;6.60;;
42006;SDS011;27696;42.704;23.304;2023-04-30T05:09:11;11.35;;;6.90;;
42006;SDS011;27696;42.704;23.304;2023-04-30T05:11:37;17.15;;;8.13;;
42006;SDS011;27696;42.704;23.304;2023-04-30T05:14:03;9.15;;;6.97;;
42006;SDS011;27696;42.704;23.304;2023-04-30T05:16:28;11.43;;;7.53;;
42006;SDS011;27696;42.704;23.304;2023-04-30T05:18:54;13.40;;;7.32;;
42006;SDS011;27696;42.704;23.304;2023-04-30T05:21:19;10.48;;;7.25;;
42006;SDS011;27696;42.704;23.304;2023-04-30T05:23:45;10.63;;;7.25;;
42006;SDS011;27696;42.704;23.304;2023-04-30T05:26:11;10.57;;;6.72;;
42006;SDS011;27696;42.704;23.304;2023-04-30T05:28:36;10.07;;;7.00;;
42006;SDS011;27696;42.704;23.304;2023-04-30T05:31:02;11.15;;;6.88;;
42006;SDS011;27696;42.704;23.304;2023-04-30T05:33:28;9.85;;;7.13;;
42006;SDS011;27696;42.704;23.304;2023-04-30T05:35:54;10.07;;;7.40;;
42006;SDS011;27696;42.704;23.304;2023-04-30T05:38:19;11.45;;;7.13;;
42006;SDS011;27696;42.704;23.304;2023-04-30T05:40:45;14.48;;;8.48;;
42006;SDS011;27696;42.704;23.304;2023-04-30T05:43:10;15.15;;;9.13;;
42006;SDS011;27696;42.704;23.304;2023-04-30T05:45:35;11.10;;;9.07;;
42006;SDS011;27696;42.704;23.304;2023-04-30T05:48:01;12.57;;;8.55;;
42006;SDS011;27696;42.704;23.304;2023-04-30T05:50:26;11.77;;;8.93;;
42006;SDS011;27696;42.704;23.304;2023-04-30T05:52:51;14.90;;;8.20;;
42006;SDS011;27696;42.704;23.304;2023-04-30T05:55:17;10.57;;;8.43;;
42006;SDS011;27696;42.704;23.304;2023-04-30T05:57:42;12.07;;;9.15;;
42006;SDS011;27696;42.704;23.304;2023-04-30T06:00:08;8.75;;;7.85;;
42006;SDS011;27696;42.704;23.304;2023-04-30T06:02:34;15.68;;;9.15;;
42006;SDS011;27696;42.704;23.304;2023-04-30T06:04:59;15.98;;;9.18;;
42006;SDS011;27696;42.704;23.304;2023-04-30T06:07:26;15.65;;;9.93;;
42006;SDS011;27696;42.704;23.304;2023-04-30T06:09:52;14.48;;;9.38;;
42006;SDS011;27696;42.704;23.304;2023-04-30T06:12:17;14.75;;;9.65;;
42006;SDS011;27696;42.704;23.304;2023-04-30T06:14:43;13.80;;;9.38;;
42006;SDS011;27696;42.704;23.304;2023-04-30T06:17:10;17.65;;;9.25;;
42006;SDS011;27696;42.704;23.304;2023-04-30T06:19:36;14.00;;;9.10;;
42006;SDS011;27696;42.704;23.304;2023-04-30T06:22:03;15.23;;;9.23;;
42006;SDS011;27696;42.704;23.304;2023-04-30T06:24:28;13.18;;;9.73;;
42006;SDS011;27696;42.704;23.304;2023-04-30T06:29:33;13.63;;;10.07;;
42006;SDS011;27696;42.704;23.304;2023-04-30T06:31:59;17.85;;;10.40;;
42006;SDS011;27696;42.704;23.304;2023-04-30T06:34:24;13.80;;;10.40;;
42006;SDS011;27696;42.704;23.304;2023-04-30T06:36:50;13.10;;;8.70;;
42006;SDS011;27696;42.704;23.304;2023-04-30T06:39:16;16.17;;;9.75;;
42006;SDS011;27696;42.704;23.304;2023-04-30T06:41:41;16.52;;;11.27;;
42006;SDS011;27696;42.704;23.304;2023-04-30T06:44:07;15.55;;;9.82;;
42006;SDS011;27696;42.704;23.304;2023-04-30T06:46:33;16.52;;;9.90;;
42006;SDS011;27696;42.704;23.304;2023-04-30T06:48:58;16.98;;;10.35;;
42006;SDS011;27696;42.704;23.304;2023-04-30T06:51:24;14.90;;;10.57;;
42006;SDS011;27696;42.704;23.304;2023-04-30T06:53:50;17.65;;;11.30;;
42006;SDS011;27696;42.704;23.304;2023-04-30T06:56:16;18.20;;;10.10;;
42006;SDS011;27696;42.704;23.304;2023-04-30T06:58:41;14.30;;;10.57;;
42006;SDS011;27696;42.704;23.304;2023-04-30T07:01:09;20.58;;;10.43;;
42006;SDS011;27696;42.704;23.304;2023-04-30T07:03:34;14.20;;;9.60;;
42006;SDS011;27696;42.704;23.304;2023-04-30T07:06:00;16.88;;;10.20;;
42006;SDS011;27696;42.704;23.304;2023-04-30T07:08:25;14.43;;;10.55;;
42006;SDS011;27696;42.704;23.304;2023-04-30T07:10:51;10.75;;;9.52;;
42006;SDS011;27696;42.704;23.304;2023-04-30T07:13:16;15.20;;;10.45;;
42006;SDS011;27696;42.704;23.304;2023-04-30T07:15:42;14.48;;;11.48;;
42006;SDS011;27696;42.704;23.304;2023-04-30T07:18:07;18.35;;;10.73;;
42006;SDS011;27696;42.704;23.304;2023-04-30T07:20:34;14.30;;;10.45;;
42006;SDS011;27696;42.704;23.304;2023-04-30T07:22:59;19.02;;;10.85;;
42006;SDS011;27696;42.704;23.304;2023-04-30T07:25:25;16.30;;;12.48;;
42006;SDS011;27696;42.704;23.304;2023-04-30T07:27:51;17.90;;;12.40;;
42006;SDS011;27696;42.704;23.304;2023-04-30T07:30:19;18.42;;;11.15;;
42006;SDS011;27696;42.704;23.304;2023-04-30T07:32:45;16.13;;;10.02;;
42006;SDS011;27696;42.704;23.304;2023-04-30T07:35:11;14.55;;;9.32;;
42006;SDS011;27696;42.704;23.304;2023-04-30T07:37:37;15.38;;;9.85;;
42006;SDS011;27696;42.704;23.304;2023-04-30T07:40:03;17.13;;;8.93;;
42006;SDS011;27696;42.704;23.304;2023-04-30T07:42:29;14.68;;;9.50;;
42006;SDS011;27696;42.704;23.304;2023-04-30T07:44:54;16.40;;;9.80;;
42006;SDS011;27696;42.704;23.304;2023-04-30T07:47:20;15.73;;;8.45;;
42006;SDS011;27696;42.704;23.304;2023-04-30T07:49:45;14.68;;;8.68;;
42006;SDS011;27696;42.704;23.304;2023-04-30T07:52:11;16.45;;;7.88;;
42006;SDS011;27696;42.704;23.304;2023-04-30T07:54:37;14.35;;;8.30;;
42006;SDS011;27696;42.704;23.304;2023-04-30T07:57:04;10.40;;;7.40;;
42006;SDS011;27696;42.704;23.304;2023-04-30T07:59:30;13.18;;;7.10;;
42006;SDS011;27696;42.704;23.304;2023-04-30T08:01:56;9.68;;;5.88;;
42006;SDS011;27696;42.704;23.304;2023-04-30T08:04:21;8.23;;;6.15;;
42006;SDS011;27696;42.704;23.304;2023-04-30T08:06:47;9.85;;;5.03;;
42006;SDS011;27696;42.704;23.304;2023-04-30T08:09:12;9.77;;;5.97;;
42006;SDS011;27696;42.704;23.304;2023-04-30T08:11:39;12.55;;;6.28;;
42006;SDS011;27696;42.704;23.304;2023-04-30T08:14:05;9.13;;;4.57;;
42006;SDS011;27696;42.704;23.304;2023-04-30T08:16:31;9.90;;;4.97;;
42006;SDS011;27696;42.704;23.304;2023-04-30T08:18:56;6.63;;;4.93;;
42006;SDS011;27696;42.704;23.304;2023-04-30T08:21:22;9.68;;;5.63;;
42006;SDS011;27696;42.704;23.304;2023-04-30T08:23:47;8.35;;;4.85;;
42006;SDS011;27696;42.704;23.304;2023-04-30T08:26:13;9.63;;;4.95;;
42006;SDS011;27696;42.704;23.304;2023-04-30T08:28:39;7.28;;;5.25;;
42006;SDS011;27696;42.704;23.304;2023-04-30T08:31:04;9.65;;;4.80;;
42006;SDS011;27696;42.704;23.304;2023-04-30T08:33:30;7.15;;;4.88;;
42006;SDS011;27696;42.704;23.304;2023-04-30T08:35:56;9.63;;;4.68;;
42006;SDS011;27696;42.704;23.304;2023-04-30T08:38:21;6.28;;;4.25;;
42006;SDS011;27696;42.704;23.304;2023-04-30T08:40:48;6.63;;;4.78;;
42006;SDS011;27696;42.704;23.304;2023-04-30T08:43:18;5.22;;;4.57;;
42006;SDS011;27696;42.704;23.304;2023-04-30T08:45:44;5.40;;;4.00;;
42006;SDS011;27696;42.704;23.304;2023-04-30T08:48:10;8.60;;;4.43;;
42006;SDS011;27696;42.704;23.304;2023-04-30T08:50:37;5.80;;;4.25;;
42006;SDS011;27696;42.704;23.304;2023-04-30T08:53:03;6.40;;;3.67;;
42006;SDS011;27696;42.704;23.304;2023-04-30T08:55:29;5.82;;;3.33;;
42006;SDS011;27696;42.704;23.304;2023-04-30T08:57:58;7.20;;;4.45;;
42006;SDS011;27696;42.704;23.304;2023-04-30T09:00:23;5.10;;;3.50;;
42006;SDS011;27696;42.704;23.304;2023-04-30T09:02:50;4.22;;;3.72;;
42006;SDS011;27696;42.704;23.304;2023-04-30T09:05:16;5.85;;;3.55;;
42006;SDS011;27696;42.704;23.304;2023-04-30T09:07:42;4.20;;;3.42;;
42006;SDS011;27696;42.704;23.304;2023-04-30T09:10:20;4.70;;;3.50;;
42006;SDS011;27696;42.704;23.304;2023-04-30T09:13:03;4.15;;;3.45;;
42006;SDS011;27696;42.704;23.304;2023-04-30T09:15:30;3.95;;;3.63;;
42006;SDS011;27696;42.704;23.304;2023-04-30T09:18:15;8.63;;;4.20;;
42006;SDS011;27696;42.704;23.304;2023-04-30T09:23:24;7.70;;;4.15;;
42006;SDS011;27696;42.704;23.304;2023-04-30T09:25:50;5.93;;;3.75;;
42006;SDS011;27696;42.704;23.304;2023-04-30T09:28:15;3.72;;;3.40;;
42006;SDS011;27696;42.704;23.304;2023-04-30T09:30:41;3.90;;;3.20;;
42006;SDS011;27696;42.704;23.304;2023-04-30T09:33:07;3.30;;;2.70;;
42006;SDS011;27696;42.704;23.304;2023-04-30T09:35:34;3.33;;;2.97;;
42006;SDS011;27696;42.704;23.304;2023-04-30T09:38:01;6.28;;;3.15;;
42006;SDS011;27696;42.704;23.304;2023-04-30T09:42:59;5.82;;;3.33;;
42006;SDS011;27696;42.704;23.304;2023-04-30T09:45:25;4.47;;;3.65;;
42006;SDS011;27696;42.704;23.304;2023-04-30T09:47:53;3.83;;;3.30;;
42006;SDS011;27696;42.704;23.304;2023-04-30T09:50:19;6.40;;;3.20;;
42006;SDS011;27696;42.704;23.304;2023-04-30T09:52:50;4.40;;;3.40;;
42006;SDS011;27696;42.704;23.304;2023-04-30T09:55:17;5.25;;;3.50;;
42006;SDS011;27696;42.704;23.304;2023-04-30T09:57:43;4.80;;;3.17;;
42006;SDS011;27696;42.704;23.304;2023-04-30T10:00:09;4.57;;;3.67;;
42006;SDS011;27696;42.704;23.304;2023-04-30T10:02:35;5.82;;;3.30;;
42006;SDS011;27696;42.704;23.304;2023-04-30T10:05:01;3.40;;;2.97;;
42006;SDS011;27696;42.704;23.304;2023-04-30T10:07:30;3.65;;;2.90;;
42006;SDS011;27696;42.704;23.304;2023-04-30T10:12:38;3.17;;;2.88;;
42006;SDS011;27696;42.704;23.304;2023-04-30T10:15:16;2.80;;;2.60;;
42006;SDS011;27696;42.704;23.304;2023-04-30T10:17:49;3.33;;;2.92;;
42006;SDS011;27696;42.704;23.304;2023-04-30T10:20:22;11.13;;;2.63;;
42006;SDS011;27696;42.704;23.304;2023-04-30T10:22:48;5.57;;;2.78;;
42006;SDS011;27696;42.704;23.304;2023-04-30T10:25:14;10.52;;;3.30;;
42006;SDS011;27696;42.704;23.304;2023-04-30T10:27:40;6.63;;;4.47;;
42006;SDS011;27696;42.704;23.304;2023-04-30T10:30:06;4.35;;;3.28;;
42006;SDS011;27696;42.704;23.304;2023-04-30T10:32:39;5.00;;;3.60;;
42006;SDS011;27696;42.704;23.304;2023-04-30T10:35:25;5.35;;;3.72;;
42006;SDS011;27696;42.704;23.304;2023-04-30T10:38:14;7.25;;;4.53;;
42006;SDS011;27696;42.704;23.304;2023-04-30T10:40:44;9.13;;;5.07;;
42006;SDS011;27696;42.704;23.304;2023-04-30T10:43:10;8.27;;;4.78;;
42006;SDS011;27696;42.704;23.304;2023-04-30T10:45:36;5.30;;;4.63;;
42006;SDS011;27696;42.704;23.304;2023-04-30T10:48:03;4.80;;;4.40;;
42006;SDS011;27696;42.704;23.304;2023-04-30T10:50:29;5.80;;;4.07;;
42006;SDS011;27696;42.704;23.304;2023-04-30T10:53:04;5.20;;;4.70;;
42006;SDS011;27696;42.704;23.304;2023-04-30T10:55:30;4.97;;;4.57;;
42006;SDS011;27696;42.704;23.304;2023-04-30T10:57:59;4.53;;;4.13;;
42006;SDS011;27696;42.704;23.304;2023-04-30T11:00:25;5.38;;;4.18;;
42006;SDS011;27696;42.704;23.304;2023-04-30T11:02:56;4.68;;;4.28;;
42006;SDS011;27696;42.704;23.304;2023-04-30T11:05:44;4.75;;;4.35;;
42006;SDS011;27696;42.704;23.304;2023-04-30T11:08:12;6.40;;;4.80;;
42006;SDS011;27696;42.704;23.304;2023-04-30T11:10:37;5.13;;;3.33;;
42006;SDS011;27696;42.704;23.304;2023-04-30T11:13:06;3.97;;;3.63;;
42006;SDS011;27696;42.704;23.304;2023-04-30T11:15:38;4.70;;;3.83;;
42006;SDS011;27696;42.704;23.304;2023-04-30T11:18:06;5.60;;;2.60;;
42006;SDS011;27696;42.704;23.304;2023-04-30T11:20:31;3.55;;;3.25;;
42006;SDS011;27696;42.704;23.304;2023-04-30T11:23:07;5.75;;;3.70;;
42006;SDS011;27696;42.704;23.304;2023-04-30T11:25:42;4.45;;;2.92;;
42006;SDS011;27696;42.704;23.304;2023-04-30T11:28:27;7.00;;;3.72;;
42006;SDS011;27696;42.704;23.304;2023-04-30T11:30:54;4.57;;;3.47;;
42006;SDS011;27696;42.704;23.304;2023-04-30T11:33:22;7.07;;;3.60;;
42006;SDS011;27696;42.704;23.304;2023-04-30T11:35:49;11.63;;;4.40;;
42006;SDS011;27696;42.704;23.304;2023-04-30T11:38:23;5.40;;;3.90;;
42006;SDS011;27696;42.704;23.304;2023-04-30T11:40:52;5.55;;;3.83;;
42006;SDS011;27696;42.704;23.304;2023-04-30T11:48:34;4.10;;;2.88;;
42006;SDS011;27696;42.704;23.304;2023-04-30T11:51:04;8.35;;;3.35;;
42006;SDS011;27696;42.704;23.304;2023-04-30T11:53:44;8.80;;;3.13;;
42006;SDS011;27696;42.704;23.304;2023-04-30T11:56:10;6.28;;;3.30;;
42006;SDS011;27696;42.704;23.304;2023-04-30T11:58:36;3.60;;;3.30;;
42006;SDS011;27696;42.704;23.304;2023-04-30T12:01:06;4.32;;;3.00;;
42006;SDS011;27696;42.704;23.304;2023-04-30T12:03:39;4.28;;;3.70;;
42006;SDS011;27696;42.704;23.304;2023-04-30T12:06:08;3.83;;;3.13;;
42006;SDS011;27696;42.704;23.304;2023-04-30T12:08:34;7.80;;;3.30;;
42006;SDS011;27696;42.704;23.304;2023-04-30T12:11:00;4.30;;;3.22;;
42006;SDS011;27696;42.704;23.304;2023-04-30T12:13:25;4.13;;;3.45;;
42006;SDS011;27696;42.704;23.304;2023-04-30T12:15:58;3.92;;;3.53;;
42006;SDS011;27696;42.704;23.304;2023-04-30T12:18:23;6.20;;;3.85;;
42006;SDS011;27696;42.704;23.304;2023-04-30T12:20:50;4.80;;;3.95;;
42006;SDS011;27696;42.704;23.304;2023-04-30T12:23:16;3.30;;;3.03;;
42006;SDS011;27696;42.704;23.304;2023-04-30T12:25:41;5.13;;;3.78;;
42006;SDS011;27696;42.704;23.304;2023-04-30T12:28:08;4.80;;;3.33;;
42006;SDS011;27696;42.704;23.304;2023-04-30T12:30:34;4.40;;;3.60;;
42006;SDS011;27696;42.704;23.304;2023-04-30T12:32:59;4.40;;;3.38;;
42006;SDS011;27696;42.704;23.304;2023-04-30T12:35:29;4.03;;;3.42;;
42006;SDS011;27696;42.704;23.304;2023-04-30T12:38:05;4.72;;;3.40;;
42006;SDS011;27696;42.704;23.304;2023-04-30T12:40:31;5.53;;;3.40;;
42006;SDS011;27696;42.704;23.304;2023-04-30T12:43:00;5.43;;;3.83;;
42006;SDS011;27696;42.704;23.304;2023-04-30T12:48:09;6.07;;;3.65;;
42006;SDS011;27696;42.704;23.304;2023-04-30T12:50:35;5.32;;;3.70;;
42006;SDS011;27696;42.704;23.304;2023-04-30T12:53:01;5.55;;;3.70;;
42006;SDS011;27696;42.704;23.304;2023-04-30T12:55:27;5.88;;;3.40;;
42006;SDS011;27696;42.704;23.304;2023-04-30T12:58:03;6.82;;;3.30;;
42006;SDS011;27696;42.704;23.304;2023-04-30T13:00:42;5.25;;;3.25;;
42006;SDS011;27696;42.704;23.304;2023-04-30T13:03:25;4.28;;;3.45;;
42006;SDS011;27696;42.704;23.304;2023-04-30T13:05:51;4.75;;;3.65;;
42006;SDS011;27696;42.704;23.304;2023-04-30T13:08:18;6.53;;;4.47;;
42006;SDS011;27696;42.704;23.304;2023-04-30T13:10:45;5.22;;;3.55;;
42006;SDS011;27696;42.704;23.304;2023-04-30T13:13:11;6.90;;;3.97;;
42006;SDS011;27696;42.704;23.304;2023-04-30T13:15:37;8.35;;;3.88;;
42006;SDS011;27696;42.704;23.304;2023-04-30T13:18:04;7.95;;;3.78;;
42006;SDS011;27696;42.704;23.304;2023-04-30T13:20:32;5.97;;;4.03;;
42006;SDS011;27696;42.704;23.304;2023-04-30T13:22:58;7.00;;;3.92;;
42006;SDS011;27696;42.704;23.304;2023-04-30T13:25:23;3.72;;;3.30;;
42006;SDS011;27696;42.704;23.304;2023-04-30T13:27:49;5.43;;;3.30;;
42006;SDS011;27696;42.704;23.304;2023-04-30T13:30:14;9.73;;;3.88;;
42006;SDS011;27696;42.704;23.304;2023-04-30T13:32:39;3.97;;;3.08;;
42006;SDS011;27696;42.704;23.304;2023-04-30T13:35:06;5.32;;;3.47;;
42006;SDS011;27696;42.704;23.304;2023-04-30T13:37:32;4.43;;;2.95;;
42006;SDS011;27696;42.704;23.304;2023-04-30T13:39:59;3.22;;;2.80;;
42006;SDS011;27696;42.704;23.304;2023-04-30T13:42:25;7.18;;;2.88;;
42006;SDS011;27696;42.704;23.304;2023-04-30T13:44:51;5.28;;;3.35;;
42006;SDS011;27696;42.704;23.304;2023-04-30T13:47:16;7.72;;;3.20;;
42006;SDS011;27696;42.704;23.304;2023-04-30T13:49:42;7.07;;;4.20;;
42006;SDS011;27696;42.704;23.304;2023-04-30T13:52:07;5.07;;;3.20;;
42006;SDS011;27696;42.704;23.304;2023-04-30T13:54:33;4.75;;;3.03;;
42006;SDS011;27696;42.704;23.304;2023-04-30T13:56:58;4.55;;;3.30;;
42006;SDS011;27696;42.704;23.304;2023-04-30T13:59:24;4.45;;;3.33;;
42006;SDS011;27696;42.704;23.304;2023-04-30T14:01:49;3.30;;;3.03;;
42006;SDS011;27696;42.704;23.304;2023-04-30T14:04:15;4.95;;;3.85;;
42006;SDS011;27696;42.704;23.304;2023-04-30T14:06:40;5.60;;;3.38;;
42006;SDS011;27696;42.704;23.304;2023-04-30T14:09:06;6.22;;;3.40;;
42006;SDS011;27696;42.704;23.304;2023-04-30T14:11:31;6.07;;;2.65;;
42006;SDS011;27696;42.704;23.304;2023-04-30T14:13:57;4.75;;;2.88;;
42006;SDS011;27696;42.704;23.304;2023-04-30T14:16:22;6.32;;;2.80;;
42006;SDS011;27696;42.704;23.304;2023-04-30T14:18:48;2.97;;;2.20;;
42006;SDS011;27696;42.704;23.304;2023-04-30T14:21:13;6.65;;;2.30;;
42006;SDS011;27696;42.704;23.304;2023-04-30T14:23:39;6.63;;;2.70;;
42006;SDS011;27696;42.704;23.304;2023-04-30T14:26:05;5.57;;;2.78;;
42006;SDS011;27696;42.704;23.304;2023-04-30T14:28:31;5.00;;;2.25;;
42006;SDS011;27696;42.704;23.304;2023-04-30T14:30:56;5.18;;;2.67;;
42006;SDS011;27696;42.704;23.304;2023-04-30T14:33:22;7.10;;;2.60;;
42006;SDS011;27696;42.704;23.304;2023-04-30T14:35:47;7.85;;;2.90;;
42006;SDS011;27696;42.704;23.304;2023-04-30T14:38:13;5.05;;;2.65;;
42006;SDS011;27696;42.704;23.304;2023-04-30T14:40:39;3.92;;;2.67;;
42006;SDS011;27696;42.704;23.304;2023-04-30T14:43:04;5.13;;;2.30;;
42006;SDS011;27696;42.704;23.304;2023-04-30T14:45:33;4.82;;;2.60;;
42006;SDS011;27696;42.704;23.304;2023-04-30T14:47:58;2.65;;;2.00;;
42006;SDS011;27696;42.704;23.304;2023-04-30T14:50:24;3.42;;;2.25;;
42006;SDS011;27696;42.704;23.304;2023-04-30T14:52:49;3.92;;;2.40;;
42006;SDS011;27696;42.704;23.304;2023-04-30T14:55:15;2.75;;;2.42;;
42006;SDS011;27696;42.704;23.304;2023-04-30T14:57:41;5.20;;;2.67;;
42006;SDS011;27696;42.704;23.304;2023-04-30T15:00:07;4.75;;;2.60;;